Portada
METAR-TAF:

METAR-TAF

Aeropuertos :

Sarakhs, Irán

latitud: 36-30-04N, longitud: 061-03-54E, altitud: 288 m

Observación

El informe se hizo hace 1 hora y 14 minutos, a las 01:00 UTC
Viento 2 kt del oeste
Temperatura 13°C
Humedad 77%
Presión 1013 hPa

METAR: OIMC 030100Z AUTO 27002KT //// // ////// 13/09 Q1013

Hora: 06:44 (02:14 UTC)


TAF: falta

Observaciones y pronósticos meteorológicos de más de 4000 aeropuertos (mensajes METAR y TAF).

Los puntos amarillos y rojos representan las estaciones disponibles.

Ponga el ratón en el punto deseado para ver el nombre de la estación.

Haga clic para ver las observaciones y los pronósticos meteorológicos.

Para cambiar el mapa : haga clic en los botones verdes con una cruz de color negro para hacer un zoom, en el botón verde con un guión para alejar o en las flechas verdes para mapas adyacentes.


METAR-TAF: